TimeEST,TemperatureF,Dew PointF,Humidity,Sea Level PressureIn,VisibilityMPH,Wind Direction,Wind SpeedMPH,Gust SpeedMPH,PrecipitationIn,Events,Conditions,WindDirDegrees,DateUTC
12:15 AM,28.4,24.8,86,29.11,1.5,WNW,3.5,-,0.01,,Overcast,290,2014-01-26 05:15:00
12:35 AM,24.8,21.2,86,29.11,1.2,NW,9.2,-,0.01,,Overcast,320,2014-01-26 05:35:00
12:55 AM,23.0,19.4,86,29.10,1.5,NNW,9.2,-,0.01,,Overcast,330,2014-01-26 05:55:00
1:15 AM,23.0,19.4,86,29.09,1.8,NNW,9.2,-,N/A,,Overcast,330,2014-01-26 06:15:00
1:35 AM,23.0,19.4,86,29.09,1.8,NW,5.8,-,N/A,,Overcast,320,2014-01-26 06:35:00
1:55 AM,23.0,17.6,80,29.09,1.5,WNW,6.9,-,N/A,,Overcast,290,2014-01-26 06:55:00
2:15 AM,23.0,19.4,86,29.08,1.8,NW,4.6,-,N/A,,Overcast,310,2014-01-26 07:15:00
2:35 AM,23.0,19.4,86,29.09,2.0,West,8.1,-,N/A,,Overcast,280,2014-01-26 07:35:00
2:55 AM,23.0,19.4,86,29.09,3.0,WNW,6.9,-,N/A,,Overcast,290,2014-01-26 07:55:00
3:15 AM,23.0,17.6,80,29.09,3.0,WNW,6.9,-,N/A,,Overcast,300,2014-01-26 08:15:00
3:35 AM,21.2,15.8,80,29.08,4.0,WNW,13.8,18.4,N/A,,Overcast,300,2014-01-26 08:35:00
3:55 AM,21.2,15.8,80,29.08,5.0,WNW,10.4,-,N/A,,Overcast,300,2014-01-26 08:55:00
4:15 AM,21.2,15.8,80,29.08,10.0,WNW,8.1,-,N/A,,Mostly Cloudy,300,2014-01-26 09:15:00
4:35 AM,21.2,15.8,80,29.08,9.0,West,10.4,-,N/A,,Overcast,280,2014-01-26 09:35:00
4:55 AM,19.4,15.8,86,29.09,5.0,West,8.1,-,N/A,,Overcast,280,2014-01-26 09:55:00
5:15 AM,19.4,15.8,86,29.10,9.0,West,8.1,-,N/A,,Mostly Cloudy,260,2014-01-26 10:15:00
5:35 AM,19.4,15.8,86,29.11,6.0,West,9.2,-,N/A,,Overcast,260,2014-01-26 10:35:00
5:55 AM,19.4,14.0,80,29.12,7.0,West,8.1,-,N/A,,Overcast,260,2014-01-26 10:55:00
6:15 AM,19.4,12.2,74,29.13,10.0,WSW,8.1,-,N/A,,Overcast,250,2014-01-26 11:15:00
6:35 AM,19.4,12.2,74,29.15,2.5,West,24.2,36.8,N/A,,Overcast,270,2014-01-26 11:35:00
6:55 AM,15.8,6.8,68,29.16,5.0,West,19.6,27.6,N/A,,Overcast,260,2014-01-26 11:55:00
7:15 AM,12.2,1.4,62,29.19,3.0,West,15.0,23.0,N/A,,Overcast,260,2014-01-26 12:15:00
7:35 AM,10.4,-0.4,62,29.20,3.0,WSW,20.7,28.8,N/A,,Mostly Cloudy,250,2014-01-26 12:35:00
7:55 AM,8.6,-4.0,57,29.22,1.5,WSW,17.3,31.1,N/A,,Scattered Clouds,250,2014-01-26 12:55:00
8:15 AM,8.6,-2.2,62,29.24,10.0,WSW,11.5,20.7,N/A,,Clear,250,2014-01-26 13:15:00
8:35 AM,8.6,-4.0,57,29.25,3.0,West,11.5,27.6,N/A,,Partly Cloudy,260,2014-01-26 13:35:00
8:55 AM,6.8,-5.8,56,29.26,7.0,WSW,13.8,29.9,N/A,,Mostly Cloudy,250,2014-01-26 13:55:00
9:15 AM,6.8,-5.8,56,29.26,1.8,WSW,24.2,31.1,N/A,,Overcast,240,2014-01-26 14:15:00
9:35 AM,5.0,-5.8,61,29.29,5.0,West,16.1,27.6,N/A,,Mostly Cloudy,260,2014-01-26 14:35:00
9:55 AM,3.2,-9.4,56,29.30,4.0,WSW,16.1,29.9,N/A,,Mostly Cloudy,240,2014-01-26 14:55:00
10:15 AM,3.2,-9.4,56,29.33,5.0,WSW,17.3,27.6,N/A,,Mostly Cloudy,250,2014-01-26 15:15:00
10:35 AM,1.4,-11.2,56,29.33,5.0,West,19.6,29.9,N/A,,Mostly Cloudy,260,2014-01-26 15:35:00
10:55 AM,1.4,-11.2,56,29.36,7.0,WSW,16.1,25.3,N/A,,Mostly Cloudy,250,2014-01-26 15:55:00
11:15 AM,1.4,-11.2,56,29.36,5.0,West,21.9,28.8,N/A,,Overcast,270,2014-01-26 16:15:00
11:35 AM,3.2,-9.4,56,29.37,5.0,West,23.0,28.8,N/A,,Scattered Clouds,270,2014-01-26 16:35:00
11:55 AM,3.2,-9.4,56,29.37,2.0,West,21.9,33.4,N/A,,Clear,260,2014-01-26 16:55:00
12:15 PM,3.2,-11.2,51,29.38,1.8,West,24.2,29.9,N/A,,Clear,260,2014-01-26 17:15:00
12:35 PM,3.2,-11.2,51,29.41,5.0,West,18.4,25.3,N/A,,Clear,270,2014-01-26 17:35:00
12:55 PM,3.2,-13.0,47,29.41,2.5,West,20.7,27.6,N/A,,Clear,270,2014-01-26 17:55:00
1:15 PM,3.2,-14.8,43,29.43,5.0,WSW,18.4,24.2,N/A,,Mostly Cloudy,250,2014-01-26 18:15:00
1:35 PM,1.4,-13.0,51,29.45,4.0,West,17.3,27.6,N/A,,Scattered Clouds,260,2014-01-26 18:35:00
1:55 PM,1.4,-14.8,47,29.46,5.0,WSW,19.6,27.6,N/A,,Scattered Clouds,250,2014-01-26 18:55:00
2:15 PM,3.2,-14.8,43,29.48,3.0,West,16.1,34.5,N/A,,Scattered Clouds,260,2014-01-26 19:15:00
2:35 PM,3.2,-14.8,43,29.50,4.0,West,17.3,27.6,N/A,,Partly Cloudy,260,2014-01-26 19:35:00
2:55 PM,1.4,-14.8,47,29.52,3.0,West,20.7,32.2,N/A,,Clear,270,2014-01-26 19:55:00
3:15 PM,1.4,-16.6,43,29.55,7.0,West,18.4,28.8,N/A,,Clear,270,2014-01-26 20:15:00
3:35 PM,1.4,-16.6,43,29.57,4.0,West,15.0,31.1,N/A,,Clear,270,2014-01-26 20:35:00
3:55 PM,-0.4,-16.6,46,29.58,10.0,West,15.0,21.9,N/A,,Clear,260,2014-01-26 20:55:00
4:15 PM,-0.4,-16.6,46,29.60,9.0,WSW,10.4,23.0,N/A,,Clear,250,2014-01-26 21:15:00
4:35 PM,-0.4,-18.4,43,29.61,9.0,WSW,10.4,28.8,N/A,,Clear,250,2014-01-26 21:35:00
4:55 PM,-2.2,-16.6,50,29.62,9.0,West,15.0,25.3,N/A,,Clear,270,2014-01-26 21:55:00
5:15 PM,-2.2,-16.6,50,29.63,10.0,West,15.0,18.4,N/A,,Clear,260,2014-01-26 22:15:00
5:35 PM,-2.2,-16.6,50,29.66,10.0,SW,4.6,-,N/A,,Clear,220,2014-01-26 22:35:00
5:55 PM,-2.2,-16.6,50,29.68,10.0,West,11.5,-,N/A,,Clear,260,2014-01-26 22:55:00
6:15 PM,-2.2,-16.6,50,29.70,10.0,WSW,8.1,-,N/A,,Clear,250,2014-01-26 23:15:00
6:35 PM,-2.2,-16.6,50,29.72,10.0,WSW,12.7,17.3,N/A,,Clear,250,2014-01-26 23:35:00
6:55 PM,-4.0,-16.6,55,29.74,10.0,WSW,9.2,-,N/A,,Clear,240,2014-01-26 23:55:00
7:15 PM,-4.0,-16.6,55,29.75,10.0,SW,10.4,-,N/A,,Clear,230,2014-01-27 00:15:00
7:35 PM,-4.0,-14.8,60,29.75,10.0,WSW,8.1,-,N/A,,Clear,240,2014-01-27 00:35:00
7:55 PM,-4.0,-16.6,55,29.75,10.0,WSW,9.2,-,N/A,,Clear,240,2014-01-27 00:55:00
8:15 PM,-4.0,-25.6,35,29.76,10.0,WSW,11.5,17.3,N/A,,Clear,250,2014-01-27 01:15:00
8:35 PM,-4.0,-22.0,42,29.78,10.0,SW,10.4,-,N/A,,Clear,230,2014-01-27 01:35:00
8:55 PM,-4.0,-25.6,35,29.79,10.0,WSW,8.1,-,N/A,,Clear,240,2014-01-27 01:55:00
9:15 PM,-4.0,-29.2,29,29.80,10.0,WSW,6.9,-,N/A,,Partly Cloudy,250,2014-01-27 02:15:00
9:35 PM,-4.0,-25.6,35,29.81,10.0,WSW,4.6,-,N/A,,Mostly Cloudy,250,2014-01-27 02:35:00
9:55 PM,-4.0,-23.8,38,29.82,10.0,SW,5.8,-,N/A,,Mostly Cloudy,230,2014-01-27 02:55:00
10:15 PM,-2.2,-22.0,39,29.83,10.0,SSW,4.6,-,N/A,,Overcast,210,2014-01-27 03:15:00
10:35 PM,-4.0,-20.2,46,29.84,10.0,South,5.8,-,N/A,,Overcast,170,2014-01-27 03:35:00
10:55 PM,-4.0,-20.2,46,29.84,10.0,SSE,4.6,-,N/A,,Overcast,160,2014-01-27 03:55:00
11:15 PM,-2.2,-2.2,100,29.85,10.0,SSE,3.5,-,N/A,,Overcast,160,2014-01-27 04:15:00
11:35 PM,-4.0,-9999,N/A,29.84,10.0,SE,3.5,-,N/A,,Mostly Cloudy,140,2014-01-27 04:35:00
11:55 PM,-4.0,-9999,N/A,29.84,10.0,SE,4.6,-,N/A,,Overcast,140,2014-01-27 04:55:00